createdAt,value
2022-11-09T07:42:44.141Z,100.00
2022-11-09T07:47:48.333Z,100.00
2022-11-09T07:52:52.511Z,100.00
2022-11-09T07:58:02.122Z,100.00
2022-11-09T08:03:07.911Z,100.00
2022-11-09T08:08:16.111Z,100.00
2022-11-09T08:13:24.883Z,100.00
2022-11-09T08:18:32.281Z,100.00
2022-11-09T08:23:36.733Z,100.00
2022-11-09T08:28:43.158Z,100.00
2022-11-09T08:33:56.628Z,100.00
2022-11-09T08:39:01.538Z,100.00
2022-11-09T08:44:09.529Z,100.00
2022-11-09T08:49:18.404Z,100.00
2022-11-09T08:54:31.232Z,100.00
2022-11-09T08:59:39.944Z,100.00
2022-11-09T09:04:46.717Z,100.00
2022-11-09T09:09:57.245Z,100.00
2022-11-09T09:15:02.846Z,100.00
2022-11-09T09:20:08.033Z,99.34
2022-11-09T09:25:11.652Z,99.42
2022-11-09T09:30:17.074Z,99.15
2022-11-09T09:35:20.651Z,98.70
2022-11-09T09:40:27.891Z,97.56
2022-11-09T09:45:35.047Z,97.49
2022-11-09T09:50:45.424Z,97.55
2022-11-09T09:55:52.624Z,96.32
2022-11-09T10:01:00.423Z,95.65
2022-11-09T10:06:13.135Z,94.97
2022-11-09T10:11:26.580Z,94.47
2022-11-09T10:16:37.300Z,93.85
2022-11-09T10:21:49.563Z,93.16
2022-11-09T10:26:54.692Z,92.73
2022-11-09T10:32:07.723Z,92.86
2022-11-09T10:37:15.019Z,93.08
2022-11-09T10:42:18.494Z,92.72
2022-11-09T10:47:51.026Z,91.92
2022-11-09T10:53:17.206Z,92.90
2022-11-09T10:58:41.501Z,92.03
2022-11-09T11:04:22.985Z,92.22
2022-11-09T11:09:45.366Z,91.94
2022-11-09T11:15:25.361Z,100.00
2022-11-09T11:20:52.334Z,91.06
2022-11-09T11:26:39.721Z,91.87
2022-11-09T11:32:03.329Z,91.31
2022-11-09T11:37:38.974Z,91.23
2022-11-09T11:43:13.187Z,90.91
2022-11-09T11:49:08.630Z,89.97
2022-11-09T11:54:37.903Z,90.03
2022-11-09T12:00:06.239Z,89.26
2022-11-09T12:06:00.750Z,89.71
2022-11-09T12:11:33.219Z,89.89
2022-11-09T12:17:02.298Z,90.37
2022-11-09T12:22:33.276Z,89.46
2022-11-09T12:28:12.083Z,89.61
2022-11-09T12:33:43.799Z,89.74
2022-11-09T12:39:12.411Z,90.17
2022-11-09T12:44:40.151Z,91.09
2022-11-09T12:50:02.398Z,91.33
2022-11-09T12:55:30.247Z,91.35
2022-11-09T13:00:56.127Z,90.75
2022-11-09T13:06:20.087Z,90.69
2022-11-09T13:11:43.223Z,90.89
2022-11-09T13:18:02.852Z,91.11
2022-11-09T13:29:27.179Z,92.22
2022-11-09T13:34:51.642Z,92.52
2022-11-09T13:40:50.062Z,92.89
2022-11-09T13:46:26.410Z,92.79
2022-11-09T13:51:50.124Z,93.69
2022-11-09T13:57:12.868Z,93.94
2022-11-09T14:02:34.968Z,94.82
2022-11-09T14:08:03.296Z,95.14
2022-11-09T14:14:02.258Z,95.13
2022-11-09T14:19:32.242Z,95.43
2022-11-09T14:24:55.839Z,96.01
2022-11-09T14:30:21.820Z,96.30
2022-11-09T14:35:44.486Z,97.17
2022-11-09T14:41:20.044Z,97.49
2022-11-09T14:46:41.977Z,98.32
2022-11-09T14:52:03.984Z,99.09
2022-11-09T14:57:29.298Z,99.86
2022-11-09T15:02:53.543Z,100.00
2022-11-09T15:08:50.046Z,100.00
2022-11-09T15:14:15.817Z,100.00
2022-11-09T15:19:42.079Z,100.00
2022-11-09T15:32:00.593Z,100.00
2022-11-09T15:37:59.475Z,100.00
2022-11-09T15:43:49.265Z,100.00
2022-11-09T15:49:33.604Z,100.00
2022-11-09T15:55:23.313Z,100.00
2022-11-09T16:00:46.302Z,100.00
2022-11-09T16:06:22.594Z,100.00
2022-11-09T16:11:50.721Z,100.00
2022-11-09T16:17:38.381Z,100.00
2022-11-09T16:41:01.381Z,100.00
2022-11-09T17:16:05.460Z,100.00
2022-11-09T17:33:16.431Z,100.00
2022-11-09T17:38:49.099Z,100.00
